sensor_id;sensor_type;location;lat;lon;timestamp;pressure;altitude;pressure_sealevel;temperature;humidity
76994;BME280;66749;47.406;18.822;2024-02-26T00:00:22;99611.09;;;10.35;100.00
76994;BME280;66749;47.406;18.822;2024-02-26T00:00:54;99615.31;;;10.37;100.00
76994;BME280;66749;47.406;18.822;2024-02-26T00:01:27;99611.09;;;10.35;100.00
76994;BME280;66749;47.406;18.822;2024-02-26T00:01:59;99618.94;;;10.35;100.00
76994;BME280;66749;47.406;18.822;2024-02-26T00:02:30;99614.53;;;10.35;100.00
76994;BME280;66749;47.406;18.822;2024-02-26T00:03:03;99616.44;;;10.33;100.00
76994;BME280;66749;47.406;18.822;2024-02-26T00:03:35;99615.50;;;10.34;100.00
76994;BME280;66749;47.406;18.822;2024-02-26T00:04:07;99617.16;;;10.35;100.00
76994;BME280;66749;47.406;18.822;2024-02-26T00:04:39;99610.09;;;10.37;100.00
76994;BME280;66749;47.406;18.822;2024-02-26T00:05:11;99625.72;;;10.37;100.00
76994;BME280;66749;47.406;18.822;2024-02-26T00:05:43;99616.44;;;10.33;100.00
76994;BME280;66749;47.406;18.822;2024-02-26T00:06:15;99615.59;;;10.33;100.00
76994;BME280;66749;47.406;18.822;2024-02-26T00:06:47;99622.59;;;10.32;100.00
76994;BME280;66749;47.406;18.822;2024-02-26T00:07:21;99615.72;;;10.31;100.00
76994;BME280;66749;47.406;18.822;2024-02-26T00:07:53;99612.16;;;10.32;100.00
76994;BME280;66749;47.406;18.822;2024-02-26T00:08:25;99615.50;;;10.34;100.00
76994;BME280;66749;47.406;18.822;2024-02-26T00:08:57;99610.38;;;10.33;100.00
76994;BME280;66749;47.406;18.822;2024-02-26T00:09:29;99609.56;;;10.32;100.00
76994;BME280;66749;47.406;18.822;2024-02-26T00:10:02;99614.03;;;10.30;100.00
76994;BME280;66749;47.406;18.822;2024-02-26T00:10:34;99614.03;;;10.30;100.00
76994;BME280;66749;47.406;18.822;2024-02-26T00:11:06;99612.38;;;10.29;100.00
76994;BME280;66749;47.406;18.822;2024-02-26T00:11:38;99612.38;;;10.29;100.00
76994;BME280;66749;47.406;18.822;2024-02-26T00:12:10;99614.88;;;10.31;100.00
76994;BME280;66749;47.406;18.822;2024-02-26T00:12:42;99605.50;;;10.28;100.00
76994;BME280;66749;47.406;18.822;2024-02-26T00:13:14;99613.22;;;10.30;100.00
76994;BME280;66749;47.406;18.822;2024-02-26T00:13:46;99610.59;;;10.30;100.00
76994;BME280;66749;47.406;18.822;2024-02-26T00:14:18;99606.34;;;10.28;100.00
76994;BME280;66749;47.406;18.822;2024-02-26T00:14:49;99604.56;;;10.29;100.00
76994;BME280;66749;47.406;18.822;2024-02-26T00:15:21;99610.72;;;10.28;100.00
76994;BME280;66749;47.406;18.822;2024-02-26T00:15:53;99611.53;;;10.28;100.00
76994;BME280;66749;47.406;18.822;2024-02-26T00:16:25;99609.78;;;10.29;100.00
76994;BME280;66749;47.406;18.822;2024-02-26T00:16:57;99614.22;;;10.27;100.00
76994;BME280;66749;47.406;18.822;2024-02-26T00:17:29;99608.28;;;10.25;100.00
76994;BME280;66749;47.406;18.822;2024-02-26T00:18:01;99615.28;;;10.24;100.00
76994;BME280;66749;47.406;18.822;2024-02-26T00:18:33;99604.75;;;10.26;100.00
76994;BME280;66749;47.406;18.822;2024-02-26T00:19:05;99608.19;;;10.26;100.00
76994;BME280;66749;47.406;18.822;2024-02-26T00:19:37;99612.56;;;10.26;100.00
76994;BME280;66749;47.406;18.822;2024-02-26T00:20:10;99608.94;;;10.28;100.00
76994;BME280;66749;47.406;18.822;2024-02-26T00:20:42;99615.19;;;10.26;100.00
76994;BME280;66749;47.406;18.822;2024-02-26T00:21:14;99614.16;;;10.28;100.00
76994;BME280;66749;47.406;18.822;2024-02-26T00:21:47;99606.41;;;10.27;100.00
76994;BME280;66749;47.406;18.822;2024-02-26T00:22:18;99611.72;;;10.25;100.00
76994;BME280;66749;47.406;18.822;2024-02-26T00:22:50;99610.91;;;10.25;100.00
76994;BME280;66749;47.406;18.822;2024-02-26T00:23:22;99606.75;;;10.22;100.00
76994;BME280;66749;47.406;18.822;2024-02-26T00:23:55;99605.56;;;10.26;100.00
76994;BME280;66749;47.406;18.822;2024-02-26T00:24:27;99600.38;;;10.26;100.00
76994;BME280;66749;47.406;18.822;2024-02-26T00:24:59;99599.53;;;10.26;100.00
76994;BME280;66749;47.406;18.822;2024-02-26T00:25:31;99597.88;;;10.25;100.00
76994;BME280;66749;47.406;18.822;2024-02-26T00:26:02;99604.75;;;10.26;100.00
76994;BME280;66749;47.406;18.822;2024-02-26T00:26:35;99602.97;;;10.26;100.00
76994;BME280;66749;47.406;18.822;2024-02-26T00:27:07;99610.91;;;10.25;100.00
76994;BME280;66749;47.406;18.822;2024-02-26T00:27:39;99602.13;;;10.26;100.00
76994;BME280;66749;47.406;18.822;2024-02-26T00:28:13;99603.09;;;10.25;100.00
76994;BME280;66749;47.406;18.822;2024-02-26T00:28:45;99601.41;;;10.24;100.00
76994;BME280;66749;47.406;18.822;2024-02-26T00:29:17;99607.56;;;10.23;100.00
76994;BME280;66749;47.406;18.822;2024-02-26T00:29:49;99604.22;;;10.21;100.00
76994;BME280;66749;47.406;18.822;2024-02-26T00:30:20;99612.78;;;10.23;100.00
76994;BME280;66749;47.406;18.822;2024-02-26T00:30:54;99610.06;;;10.24;100.00
76994;BME280;66749;47.406;18.822;2024-02-26T00:31:27;99609.25;;;10.24;100.00
76994;BME280;66749;47.406;18.822;2024-02-26T00:31:59;99610.25;;;10.21;100.00
76994;BME280;66749;47.406;18.822;2024-02-26T00:32:31;99611.09;;;10.22;100.00
76994;BME280;66749;47.406;18.822;2024-02-26T00:33:03;99606.75;;;10.22;100.00
76994;BME280;66749;47.406;18.822;2024-02-26T00:33:35;99599.75;;;10.23;100.00
76994;BME280;66749;47.406;18.822;2024-02-26T00:34:07;99611.09;;;10.22;100.00
76994;BME280;66749;47.406;18.822;2024-02-26T00:34:39;99602.34;;;10.23;100.00
76994;BME280;66749;47.406;18.822;2024-02-26T00:35:11;99597.97;;;10.23;100.00
76994;BME280;66749;47.406;18.822;2024-02-26T00:35:43;99600.47;;;10.25;100.00
76994;BME280;66749;47.406;18.822;2024-02-26T00:36:15;99600.28;;;10.28;100.00
76994;BME280;66749;47.406;18.822;2024-02-26T00:36:47;99596.72;;;10.29;100.00
76994;BME280;66749;47.406;18.822;2024-02-26T00:37:19;99599.41;;;10.27;100.00
76994;BME280;66749;47.406;18.822;2024-02-26T00:37:51;99599.41;;;10.27;100.00
76994;BME280;66749;47.406;18.822;2024-02-26T00:38:22;99601.94;;;10.29;100.00
76994;BME280;66749;47.406;18.822;2024-02-26T00:38:55;99605.50;;;10.28;100.00
76994;BME280;66749;47.406;18.822;2024-02-26T00:39:30;99600.28;;;10.28;100.00
76994;BME280;66749;47.406;18.822;2024-02-26T00:40:02;99600.28;;;10.28;100.00
76994;BME280;66749;47.406;18.822;2024-02-26T00:40:35;99595.16;;;10.26;100.00
76994;BME280;66749;47.406;18.822;2024-02-26T00:41:06;99596.91;;;10.26;100.00
76994;BME280;66749;47.406;18.822;2024-02-26T00:41:41;99593.38;;;10.27;100.00
76994;BME280;66749;47.406;18.822;2024-02-26T00:42:13;99597.03;;;10.24;100.00
76994;BME280;66749;47.406;18.822;2024-02-26T00:42:45;99602.97;;;10.26;100.00
76994;BME280;66749;47.406;18.822;2024-02-26T00:43:18;99595.97;;;10.27;100.00
76994;BME280;66749;47.406;18.822;2024-02-26T00:43:49;99601.94;;;10.29;100.00
76994;BME280;66749;47.406;18.822;2024-02-26T00:44:21;99595.16;;;10.26;100.00
76994;BME280;66749;47.406;18.822;2024-02-26T00:44:53;99594.31;;;10.26;100.00
76994;BME280;66749;47.406;18.822;2024-02-26T00:45:26;99595.16;;;10.26;100.00
76994;BME280;66749;47.406;18.822;2024-02-26T00:45:58;99597.75;;;10.26;100.00
76994;BME280;66749;47.406;18.822;2024-02-26T00:46:29;99595.06;;;10.28;100.00
76994;BME280;66749;47.406;18.822;2024-02-26T00:47:01;99593.38;;;10.27;100.00
76994;BME280;66749;47.406;18.822;2024-02-26T00:47:33;99601.19;;;10.27;100.00
76994;BME280;66749;47.406;18.822;2024-02-26T00:48:06;99601.94;;;10.29;100.00
76994;BME280;66749;47.406;18.822;2024-02-26T00:48:38;99596.72;;;10.29;100.00
76994;BME280;66749;47.406;18.822;2024-02-26T00:49:10;99594.13;;;10.29;100.00
76994;BME280;66749;47.406;18.822;2024-02-26T00:49:43;99593.91;;;10.32;100.00
76994;BME280;66749;47.406;18.822;2024-02-26T00:50:15;99594.84;;;10.31;100.00
76994;BME280;66749;47.406;18.822;2024-02-26T00:50:47;99594.84;;;10.31;100.00
76994;BME280;66749;47.406;18.822;2024-02-26T00:51:18;99598.41;;;10.30;100.00
76994;BME280;66749;47.406;18.822;2024-02-26T00:51:55;99599.22;;;10.31;100.00
76994;BME280;66749;47.406;18.822;2024-02-26T00:52:27;99597.47;;;10.31;100.00
76994;BME280;66749;47.406;18.822;2024-02-26T00:53:00;99599.22;;;10.31;100.00
76994;BME280;66749;47.406;18.822;2024-02-26T00:53:31;99601.84;;;10.31;100.00
76994;BME280;66749;47.406;18.822;2024-02-26T00:54:03;99596.72;;;10.29;100.00
76994;BME280;66749;47.406;18.822;2024-02-26T00:54:35;99599.34;;;10.29;100.00
76994;BME280;66749;47.406;18.822;2024-02-26T00:55:07;99594.19;;;10.27;100.00
76994;BME280;66749;47.406;18.822;2024-02-26T00:55:39;99589.75;;;10.30;100.00
76994;BME280;66749;47.406;18.822;2024-02-26T00:56:11;99592.34;;;10.30;100.00
76994;BME280;66749;47.406;18.822;2024-02-26T00:56:43;99594.84;;;10.31;100.00
76994;BME280;66749;47.406;18.822;2024-02-26T00:57:15;99588.69;;;10.32;100.00
76994;BME280;66749;47.406;18.822;2024-02-26T00:57:47;99597.34;;;10.33;100.00
76994;BME280;66749;47.406;18.822;2024-02-26T00:58:19;99580.16;;;10.30;100.00
76994;BME280;66749;47.406;18.822;2024-02-26T00:58:51;99592.03;;;10.34;100.00
76994;BME280;66749;47.406;18.822;2024-02-26T00:59:23;99588.47;;;10.35;100.00
76994;BME280;66749;47.406;18.822;2024-02-26T00:59:55;99590.25;;;10.35;100.00
76994;BME280;66749;47.406;18.822;2024-02-26T01:00:28;99585.97;;;10.34;100.00
76994;BME280;66749;47.406;18.822;2024-02-26T01:01:00;99587.75;;;10.33;100.00
76994;BME280;66749;47.406;18.822;2024-02-26T01:01:32;99596.50;;;10.32;100.00
76994;BME280;66749;47.406;18.822;2024-02-26T01:02:04;99582.53;;;10.33;100.00
76994;BME280;66749;47.406;18.822;2024-02-26T01:02:38;99578.97;;;10.34;100.00
76994;BME280;66749;47.406;18.822;2024-02-26T01:03:10;99580.66;;;10.35;100.00
76994;BME280;66749;47.406;18.822;2024-02-26T01:03:42;99585.03;;;10.35;100.00
76994;BME280;66749;47.406;18.822;2024-02-26T01:04:14;99578.97;;;10.34;100.00
76994;BME280;66749;47.406;18.822;2024-02-26T01:04:46;99576.47;;;10.33;100.00
76994;BME280;66749;47.406;18.822;2024-02-26T01:05:18;99574.72;;;10.33;100.00
76994;BME280;66749;47.406;18.822;2024-02-26T01:05:50;99578.25;;;10.32;100.00
76994;BME280;66749;47.406;18.822;2024-02-26T01:06:23;99566.88;;;10.33;100.00
76994;BME280;66749;47.406;18.822;2024-02-26T01:06:55;99568.53;;;10.34;100.00
76994;BME280;66749;47.406;18.822;2024-02-26T01:07:27;99571.38;;;10.31;100.00
76994;BME280;66749;47.406;18.822;2024-02-26T01:07:59;99563.56;;;10.31;100.00
76994;BME280;66749;47.406;18.822;2024-02-26T01:08:32;99574.72;;;10.33;100.00
76994;BME280;66749;47.406;18.822;2024-02-26T01:09:03;99569.50;;;10.33;100.00
76994;BME280;66749;47.406;18.822;2024-02-26T01:09:35;99573.97;;;10.31;100.00
76994;BME280;66749;47.406;18.822;2024-02-26T01:10:07;99579.09;;;10.33;100.00
76994;BME280;66749;47.406;18.822;2024-02-26T01:10:39;99578.25;;;10.32;100.00
76994;BME280;66749;47.406;18.822;2024-02-26T01:11:11;99574.94;;;10.30;100.00
76994;BME280;66749;47.406;18.822;2024-02-26T01:11:43;99575.88;;;10.29;100.00
76994;BME280;66749;47.406;18.822;2024-02-26T01:12:15;99579.19;;;10.31;100.00
76994;BME280;66749;47.406;18.822;2024-02-26T01:12:47;99572.31;;;10.30;100.00
76994;BME280;66749;47.406;18.822;2024-02-26T01:13:19;99573.25;;;10.29;100.00
76994;BME280;66749;47.406;18.822;2024-02-26T01:13:51;99571.38;;;10.31;100.00
76994;BME280;66749;47.406;18.822;2024-02-26T01:14:27;99567.81;;;10.32;100.00
76994;BME280;66749;47.406;18.822;2024-02-26T01:15:00;99566.78;;;10.35;100.00
76994;BME280;66749;47.406;18.822;2024-02-26T01:15:32;99563.34;;;10.34;100.00
76994;BME280;66749;47.406;18.822;2024-02-26T01:16:04;99567.72;;;10.34;100.00
76994;BME280;66749;47.406;18.822;2024-02-26T01:16:36;99566.06;;;10.33;100.00
76994;BME280;66749;47.406;18.822;2024-02-26T01:17:07;99561.88;;;10.30;100.00
76994;BME280;66749;47.406;18.822;2024-02-26T01:17:39;99562.72;;;10.31;100.00
76994;BME280;66749;47.406;18.822;2024-02-26T01:18:12;99563.56;;;10.31;100.00
76994;BME280;66749;47.406;18.822;2024-02-26T01:18:44;99549.78;;;10.29;100.00
76994;BME280;66749;47.406;18.822;2024-02-26T01:19:16;99557.50;;;10.31;100.00
76994;BME280;66749;47.406;18.822;2024-02-26T01:19:48;99554.91;;;10.31;100.00
76994;BME280;66749;47.406;18.822;2024-02-26T01:20:20;99550.41;;;10.33;100.00
76994;BME280;66749;47.406;18.822;2024-02-26T01:20:52;99548.84;;;10.30;100.00
76994;BME280;66749;47.406;18.822;2024-02-26T01:21:26;99553.13;;;10.31;100.00
76994;BME280;66749;47.406;18.822;2024-02-26T01:22:00;99554.19;;;10.28;100.00
76994;BME280;66749;47.406;18.822;2024-02-26T01:22:32;99555.00;;;10.29;100.00
76994;BME280;66749;47.406;18.822;2024-02-26T01:23:04;99560.22;;;10.29;100.00
76994;BME280;66749;47.406;18.822;2024-02-26T01:23:36;99556.78;;;10.28;100.00
76994;BME280;66749;47.406;18.822;2024-02-26T01:24:08;99562.84;;;10.29;100.00
76994;BME280;66749;47.406;18.822;2024-02-26T01:24:40;99562.91;;;10.27;100.00
76994;BME280;66749;47.406;18.822;2024-02-26T01:25:12;99564.69;;;10.27;100.00
76994;BME280;66749;47.406;18.822;2024-02-26T01:25:44;99566.38;;;10.28;100.00
76994;BME280;66749;47.406;18.822;2024-02-26T01:26:16;99561.16;;;10.28;100.00
76994;BME280;66749;47.406;18.822;2024-02-26T01:26:48;99563.84;;;10.26;100.00
76994;BME280;66749;47.406;18.822;2024-02-26T01:27:20;99561.34;;;10.25;100.00
76994;BME280;66749;47.406;18.822;2024-02-26T01:27:52;99566.56;;;10.25;100.00
76994;BME280;66749;47.406;18.822;2024-02-26T01:28:24;99564.91;;;10.24;100.00
76994;BME280;66749;47.406;18.822;2024-02-26T01:28:55;99556.16;;;10.25;100.00
76994;BME280;66749;47.406;18.822;2024-02-26T01:29:27;99562.31;;;10.24;100.00
76994;BME280;66749;47.406;18.822;2024-02-26T01:29:59;99560.72;;;10.21;100.00
76994;BME280;66749;47.406;18.822;2024-02-26T01:30:31;99554.47;;;10.24;100.00
76994;BME280;66749;47.406;18.822;2024-02-26T01:31:03;99551.88;;;10.24;100.00
76994;BME280;66749;47.406;18.822;2024-02-26T01:31:38;99556.16;;;10.25;100.00
76994;BME280;66749;47.406;18.822;2024-02-26T01:32:10;99550.22;;;10.23;100.00
76994;BME280;66749;47.406;18.822;2024-02-26T01:32:42;99544.78;;;10.26;100.00
76994;BME280;66749;47.406;18.822;2024-02-26T01:33:14;99549.97;;;10.26;100.00
76994;BME280;66749;47.406;18.822;2024-02-26T01:33:46;99554.38;;;10.25;100.00
76994;BME280;66749;47.406;18.822;2024-02-26T01:34:18;99547.38;;;10.26;100.00
76994;BME280;66749;47.406;18.822;2024-02-26T01:34:50;99552.47;;;10.27;100.00
76994;BME280;66749;47.406;18.822;2024-02-26T01:35:22;99547.25;;;10.27;100.00
76994;BME280;66749;47.406;18.822;2024-02-26T01:35:54;99544.78;;;10.26;100.00
76994;BME280;66749;47.406;18.822;2024-02-26T01:36:26;99545.53;;;10.28;100.00
76994;BME280;66749;47.406;18.822;2024-02-26T01:36:58;99546.44;;;10.27;100.00
76994;BME280;66749;47.406;18.822;2024-02-26T01:37:30;99535.16;;;10.26;100.00
76994;BME280;66749;47.406;18.822;2024-02-26T01:38:02;99548.97;;;10.28;100.00
76994;BME280;66749;47.406;18.822;2024-02-26T01:38:34;99545.53;;;10.28;100.00
76994;BME280;66749;47.406;18.822;2024-02-26T01:39:06;99543.81;;;10.27;100.00
76994;BME280;66749;47.406;18.822;2024-02-26T01:39:38;99541.22;;;10.27;100.00
76994;BME280;66749;47.406;18.822;2024-02-26T01:40:10;99545.53;;;10.28;100.00
76994;BME280;66749;47.406;18.822;2024-02-26T01:40:42;99549.97;;;10.26;100.00
76994;BME280;66749;47.406;18.822;2024-02-26T01:41:14;99544.66;;;10.27;100.00
76994;BME280;66749;47.406;18.822;2024-02-26T01:41:46;99548.22;;;10.26;100.00
76994;BME280;66749;47.406;18.822;2024-02-26T01:42:18;99550.81;;;10.26;100.00
76994;BME280;66749;47.406;18.822;2024-02-26T01:42:52;99552.59;;;10.26;100.00
76994;BME280;66749;47.406;18.822;2024-02-26T01:43:24;99549.16;;;10.25;100.00
76994;BME280;66749;47.406;18.822;2024-02-26T01:43:56;99550.94;;;10.25;100.00
76994;BME280;66749;47.406;18.822;2024-02-26T01:44:28;99545.00;;;10.23;100.00
76994;BME280;66749;47.406;18.822;2024-02-26T01:44:59;99556.03;;;10.26;100.00
76994;BME280;66749;47.406;18.822;2024-02-26T01:45:33;99557.81;;;10.26;100.00
76994;BME280;66749;47.406;18.822;2024-02-26T01:46:05;99557.09;;;10.24;100.00
76994;BME280;66749;47.406;18.822;2024-02-26T01:46:37;99565.63;;;10.26;100.00
76994;BME280;66749;47.406;18.822;2024-02-26T01:47:11;99561.53;;;10.22;100.00
76994;BME280;66749;47.406;18.822;2024-02-26T01:47:43;99558.09;;;10.21;100.00
76994;BME280;66749;47.406;18.822;2024-02-26T01:48:17;99552.97;;;10.20;99.98
76994;BME280;66749;47.406;18.822;2024-02-26T01:48:50;99558.09;;;10.21;99.93
76994;BME280;66749;47.406;18.822;2024-02-26T01:49:22;99559.06;;;10.20;99.55
76994;BME280;66749;47.406;18.822;2024-02-26T01:49:54;99552.97;;;10.20;99.97
76994;BME280;66749;47.406;18.822;2024-02-26T01:50:27;99560.78;;;10.20;99.97
76994;BME280;66749;47.406;18.822;2024-02-26T01:50:59;99552.13;;;10.19;99.75
76994;BME280;66749;47.406;18.822;2024-02-26T01:51:32;99556.44;;;10.20;99.75
76994;BME280;66749;47.406;18.822;2024-02-26T01:52:06;99548.50;;;10.22;99.50
76994;BME280;66749;47.406;18.822;2024-02-26T01:52:38;99544.16;;;10.22;99.13
76994;BME280;66749;47.406;18.822;2024-02-26T01:53:11;99551.13;;;10.22;98.47
76994;BME280;66749;47.406;18.822;2024-02-26T01:53:43;99549.38;;;10.22;98.54
76994;BME280;66749;47.406;18.822;2024-02-26T01:54:16;99551.03;;;10.23;98.63
76994;BME280;66749;47.406;18.822;2024-02-26T01:54:48;99552.81;;;10.23;98.28
76994;BME280;66749;47.406;18.822;2024-02-26T01:55:23;99545.81;;;10.23;98.23
76994;BME280;66749;47.406;18.822;2024-02-26T01:55:55;99545.91;;;10.22;98.20
76994;BME280;66749;47.406;18.822;2024-02-26T01:56:28;99541.56;;;10.22;98.35
76994;BME280;66749;47.406;18.822;2024-02-26T01:57:04;99541.56;;;10.22;98.22
76994;BME280;66749;47.406;18.822;2024-02-26T01:57:36;99544.16;;;10.22;97.90
76994;BME280;66749;47.406;18.822;2024-02-26T01:58:09;99548.50;;;10.22;98.16
76994;BME280;66749;47.406;18.822;2024-02-26T01:58:41;99554.66;;;10.21;97.74
76994;BME280;66749;47.406;18.822;2024-02-26T01:59:13;99554.66;;;10.21;97.94
76994;BME280;66749;47.406;18.822;2024-02-26T01:59:45;99549.44;;;10.21;97.47
76994;BME280;66749;47.406;18.822;2024-02-26T02:00:18;99548.63;;;10.20;97.53
76994;BME280;66749;47.406;18.822;2024-02-26T02:00:52;99554.84;;;10.18;97.23
76994;BME280;66749;47.406;18.822;2024-02-26T02:01:31;99552.25;;;10.18;97.32
76994;BME280;66749;47.406;18.822;2024-02-26T02:02:07;99553.19;;;10.17;97.73
76994;BME280;66749;47.406;18.822;2024-02-26T02:02:39;99558.53;;;10.15;97.75
76994;BME280;66749;47.406;18.822;2024-02-26T02:03:13;99556.63;;;10.17;97.64
76994;BME280;66749;47.406;18.822;2024-02-26T02:03:45;99559.13;;;10.19;97.80
76994;BME280;66749;47.406;18.822;2024-02-26T02:04:17;99559.13;;;10.19;98.04
76994;BME280;66749;47.406;18.822;2024-02-26T02:04:50;99555.19;;;10.13;98.21
76994;BME280;66749;47.406;18.822;2024-02-26T02:05:22;99558.63;;;10.14;98.34
76994;BME280;66749;47.406;18.822;2024-02-26T02:05:54;99566.44;;;10.14;98.71
76994;BME280;66749;47.406;18.822;2024-02-26T02:06:27;99560.28;;;10.15;98.87
76994;BME280;66749;47.406;18.822;2024-02-26T02:07:02;99561.13;;;10.15;98.04
76994;BME280;66749;47.406;18.822;2024-02-26T02:07:35;99558.41;;;10.17;98.32
76994;BME280;66749;47.406;18.822;2024-02-26T02:08:10;99568.00;;;10.16;98.33
76994;BME280;66749;47.406;18.822;2024-02-26T02:08:49;99568.31;;;10.12;98.44
76994;BME280;66749;47.406;18.822;2024-02-26T02:09:21;99561.25;;;10.14;98.54
76994;BME280;66749;47.406;18.822;2024-02-26T02:09:54;99564.78;;;10.13;98.36
76994;BME280;66749;47.406;18.822;2024-02-26T02:10:26;99569.06;;;10.14;98.66
76994;BME280;66749;47.406;18.822;2024-02-26T02:10:58;99562.19;;;10.13;98.27
76994;BME280;66749;47.406;18.822;2024-02-26T02:11:32;99564.78;;;10.13;98.42
76994;BME280;66749;47.406;18.822;2024-02-26T02:12:05;99565.50;;;10.15;98.50
76994;BME280;66749;47.406;18.822;2024-02-26T02:12:37;99565.63;;;10.13;98.08
76994;BME280;66749;47.406;18.822;2024-02-26T02:13:11;99564.56;;;10.16;98.30
76994;BME280;66749;47.406;18.822;2024-02-26T02:13:43;99554.13;;;10.16;98.30
76994;BME280;66749;47.406;18.822;2024-02-26T02:14:15;99563.72;;;10.15;98.14
76994;BME280;66749;47.406;18.822;2024-02-26T02:14:47;99564.69;;;10.14;98.30
76994;BME280;66749;47.406;18.822;2024-02-26T02:15:19;99564.56;;;10.16;98.35
76994;BME280;66749;47.406;18.822;2024-02-26T02:15:52;99554.97;;;10.16;98.35
76994;BME280;66749;47.406;18.822;2024-02-26T02:16:24;99560.06;;;10.18;98.40
76994;BME280;66749;47.406;18.822;2024-02-26T02:16:56;99559.25;;;10.17;98.66
76994;BME280;66749;47.406;18.822;2024-02-26T02:17:28;99558.28;;;10.18;99.08
76994;BME280;66749;47.406;18.822;2024-02-26T02:18:00;99557.47;;;10.18;98.94
76994;BME280;66749;47.406;18.822;2024-02-26T02:18:33;99553.31;;;10.15;98.93
76994;BME280;66749;47.406;18.822;2024-02-26T02:19:05;99562.78;;;10.16;99.04
76994;BME280;66749;47.406;18.822;2024-02-26T02:19:37;99556.03;;;10.14;98.95
76994;BME280;66749;47.406;18.822;2024-02-26T02:20:14;99555.91;;;10.15;98.78
76994;BME280;66749;47.406;18.822;2024-02-26T02:20:46;99554.25;;;10.14;98.31
76994;BME280;66749;47.406;18.822;2024-02-26T02:21:18;99554.97;;;10.16;98.21
76994;BME280;66749;47.406;18.822;2024-02-26T02:21:50;99562.78;;;10.16;98.23
76994;BME280;66749;47.406;18.822;2024-02-26T02:22:22;99556.03;;;10.14;98.25
76994;BME280;66749;47.406;18.822;2024-02-26T02:22:54;99565.41;;;10.16;98.00
76994;BME280;66749;47.406;18.822;2024-02-26T02:23:26;99562.69;;;10.18;98.14
76994;BME280;66749;47.406;18.822;2024-02-26T02:23:58;99568.00;;;10.16;98.16
76994;BME280;66749;47.406;18.822;2024-02-26T02:24:29;99560.19;;;10.16;98.27
76994;BME280;66749;47.406;18.822;2024-02-26T02:25:01;99559.34;;;10.16;98.21
76994;BME280;66749;47.406;18.822;2024-02-26T02:25:33;99561.00;;;10.17;98.10
76994;BME280;66749;47.406;18.822;2024-02-26T02:26:05;99559.13;;;10.19;98.02
76994;BME280;66749;47.406;18.822;2024-02-26T02:26:37;99560.06;;;10.18;97.80
76994;BME280;66749;47.406;18.822;2024-02-26T02:27:10;99557.56;;;10.16;97.80
76994;BME280;66749;47.406;18.822;2024-02-26T02:27:42;99555.81;;;10.17;97.87
76994;BME280;66749;47.406;18.822;2024-02-26T02:28:14;99557.69;;;10.15;97.97
76994;BME280;66749;47.406;18.822;2024-02-26T02:28:48;99556.03;;;10.14;98.08
76994;BME280;66749;47.406;18.822;2024-02-26T02:29:20;99556.75;;;10.16;97.85
76994;BME280;66749;47.406;18.822;2024-02-26T02:29:52;99555.06;;;10.15;98.02
76994;BME280;66749;47.406;18.822;2024-02-26T02:30:28;99557.69;;;10.15;97.69
76994;BME280;66749;47.406;18.822;2024-02-26T02:31:00;99557.88;;;10.12;97.83
76994;BME280;66749;47.406;18.822;2024-02-26T02:31:32;99559.56;;;10.13;97.43
76994;BME280;66749;47.406;18.822;2024-02-26T02:32:04;99567.41;;;10.13;97.38
76994;BME280;66749;47.406;18.822;2024-02-26T02:32:40;99562.91;;;10.15;97.52
76994;BME280;66749;47.406;18.822;2024-02-26T02:33:15;99570.84;;;10.13;97.10
76994;BME280;66749;47.406;18.822;2024-02-26T02:33:48;99563.84;;;10.14;97.16
76994;BME280;66749;47.406;18.822;2024-02-26T02:34:21;99560.47;;;10.12;97.21
76994;BME280;66749;47.406;18.822;2024-02-26T02:34:53;99569.13;;;10.12;97.56
76994;BME280;66749;47.406;18.822;2024-02-26T02:35:25;99563.84;;;10.14;97.74
76994;BME280;66749;47.406;18.822;2024-02-26T02:35:57;99556.97;;;10.13;97.69
76994;BME280;66749;47.406;18.822;2024-02-26T02:36:29;99563.09;;;10.12;97.95
76994;BME280;66749;47.406;18.822;2024-02-26T02:37:01;99559.56;;;10.13;97.71
76994;BME280;66749;47.406;18.822;2024-02-26T02:37:33;99564.78;;;10.13;97.86
76994;BME280;66749;47.406;18.822;2024-02-26T02:38:05;99557.03;;;10.11;97.75
76994;BME280;66749;47.406;18.822;2024-02-26T02:38:38;99557.88;;;10.12;97.80
76994;BME280;66749;47.406;18.822;2024-02-26T02:39:20;99560.41;;;10.13;97.56
76994;BME280;66749;47.406;18.822;2024-02-26T02:39:52;99557.88;;;10.12;97.65
76994;BME280;66749;47.406;18.822;2024-02-26T02:40:26;99563.09;;;10.12;97.62
76994;BME280;66749;47.406;18.822;2024-02-26T02:40:58;99563.09;;;10.12;97.56
76994;BME280;66749;47.406;18.822;2024-02-26T02:41:30;99560.28;;;10.15;97.43
76994;BME280;66749;47.406;18.822;2024-02-26T02:42:02;99554.34;;;10.13;97.58
76994;BME280;66749;47.406;18.822;2024-02-26T02:42:34;99556.84;;;10.14;97.71
76994;BME280;66749;47.406;18.822;2024-02-26T02:43:05;99556.97;;;10.13;97.56
76994;BME280;66749;47.406;18.822;2024-02-26T02:43:37;99563.72;;;10.15;97.49
76994;BME280;66749;47.406;18.822;2024-02-26T02:44:09;99558.53;;;10.15;97.39
76994;BME280;66749;47.406;18.822;2024-02-26T02:44:41;99559.34;;;10.16;97.62
76994;BME280;66749;47.406;18.822;2024-02-26T02:45:13;99554.25;;;10.14;96.99
76994;BME280;66749;47.406;18.822;2024-02-26T02:45:45;99558.53;;;10.15;97.28
76994;BME280;66749;47.406;18.822;2024-02-26T02:46:17;99553.41;;;10.14;97.20
76994;BME280;66749;47.406;18.822;2024-02-26T02:46:49;99556.03;;;10.14;97.31
76994;BME280;66749;47.406;18.822;2024-02-26T02:47:22;99549.03;;;10.14;97.03
76994;BME280;66749;47.406;18.822;2024-02-26T02:47:54;99548.09;;;10.15;97.51